KATLKAWM

Guest
Details From KATL - Hartsfield Jackson Atlanta Intl
To KAWM - West Memphis Muni
Flight Number -
Tags Generated
Created
Modified
Stats Distance 301 nm / 557 km
Max Altitude 0 ft / 0 m
Waypoints 3
Social Downloads 0
Likes 0
Share VATSIM

Download

Looking for another format? Having issues loading an existing format? Contact us
Advertisement - Login to hide

Notes

Generated

Route

KATL TRVOR KAWM

ID Type Via Altitude Latitude Longitude Leg Dist Tot Dist Heading (true) Name
O KATL APT - 0 ft / 0 m 33.64678˚ -84.43838˚ - 0 nm - -
TRVOR FIX - 0 ft / 0 m 35.08297˚ -89.97678˚ 287 nm 287 nm 289° / 286° -
O KAWM APT - 0 ft / 0 m 35.14330˚ -90.23435˚ 13 nm 300 nm 286° / 286° WEST MEMPHIS MUNI

Altitude Profile

Advertisement - Login to hide

Weather


0- 5 10 15 20 25 30 35+ Temperature / ° C

Clouds and Precipitation
Forecast for 2017-12-15 00:00 UTC. Updated 2 hours ago

Ground ~20,000 ft ~40,000 ft Winds

KATL

Details ICAO KATL (ATL)
Name Hartsfield Jackson Atlanta Intl
Region United States
Timezone America/New_York (UTC-5.0)
Stats Elevation 1,026 ft / 313 m (AMSL)
Location 33.636623° -84.428207°
Runways 5
Magnetic Variation 5.094° W

METAR

KATL 142152Z 24005KT 10SM FEW250 12/02 A2993 RMK AO2 SLP139 T01220022

Decode

TAF

TAF AMD KATL 142152Z 1422/1524 26007KT P6SM SCT250 FM151500 30010KT P6SM BKN250 FM152100 32012KT P6SM SCT250

Decode

Departure Runways

ID Width Length Bearing (true) Bearing (mag) Surface Threshold Offset Overrun Length
08L 151 ft / 46 m 8,983 ft / 2,738 m 89.97° 95.06° Concrete 0 ft / 0 m 394 ft / 120 m
08R 151 ft / 46 m 9,980 ft / 3,042 m 89.97° 95.06° Concrete 0 ft / 0 m 394 ft / 120 m
09L 151 ft / 46 m 11,866 ft / 3,617 m 90.00° 95.09° Concrete 0 ft / 0 m 394 ft / 120 m
09R 151 ft / 46 m 8,983 ft / 2,738 m 89.97° 95.06° Concrete 0 ft / 0 m 230 ft / 70 m
10 151 ft / 46 m 8,982 ft / 2,738 m 89.96° 95.05° Concrete 0 ft / 0 m 394 ft / 120 m
26L 151 ft / 46 m 9,980 ft / 3,042 m 269.99° 275.08° Concrete 0 ft / 0 m 394 ft / 120 m
26R 151 ft / 46 m 8,983 ft / 2,738 m 269.99° 275.08° Concrete 0 ft / 0 m 394 ft / 120 m
27L 151 ft / 46 m 8,983 ft / 2,738 m 269.99° 275.08° Concrete 0 ft / 0 m 197 ft / 60 m
27R 151 ft / 46 m 11,866 ft / 3,617 m 270.02° 275.11° Concrete 0 ft / 0 m 394 ft / 120 m
28 151 ft / 46 m 8,982 ft / 2,738 m 269.98° 275.07° Concrete 0 ft / 0 m 394 ft / 120 m

KAWM

Details ICAO KAWM
Name WEST MEMPHIS MUNI
Region United States
Timezone America/Chicago (UTC-6.0)
Stats Elevation 212 ft / 65 m (AMSL)
Location 35.135057° -90.234448°
Runways 1
Magnetic Variation 1.180° W

METAR

KAWM 142153Z AUTO 01011KT 10SM CLR 07/M02 A3004 RMK AO2 SLP172 T00721017

Decode

TAF

Not found

Destination Runways

ID Width Length Bearing (true) Bearing (mag) Surface Threshold Offset Overrun Length
17 100 ft / 30 m 6,018 ft / 1,834 m 180.54° 181.72° Concrete 0 ft / 0 m 0 ft / 0 m
35 100 ft / 30 m 6,018 ft / 1,834 m 0.54° 1.72° Concrete 0 ft / 0 m 0 ft / 0 m